createdAt,value
2023-03-26T00:02:13.049Z,8.60
2023-03-26T00:04:42.558Z,8.50
2023-03-26T00:07:10.613Z,8.50
2023-03-26T00:09:37.247Z,8.50
2023-03-26T00:12:04.168Z,8.40
2023-03-26T00:14:30.817Z,8.40
2023-03-26T00:17:05.345Z,8.40
2023-03-26T00:19:36.184Z,8.40
2023-03-26T00:22:03.748Z,8.40
2023-03-26T00:24:30.668Z,8.50
2023-03-26T00:26:57.386Z,8.50
2023-03-26T00:29:26.561Z,8.50
2023-03-26T00:31:53.227Z,8.60
2023-03-26T00:34:20.763Z,8.60
2023-03-26T00:36:49.472Z,8.70
2023-03-26T00:39:20.253Z,8.90
2023-03-26T00:41:48.026Z,9.00
2023-03-26T00:44:20.709Z,9.30
2023-03-26T00:46:47.438Z,9.40
2023-03-26T00:49:14.973Z,9.50
2023-03-26T00:51:41.914Z,9.50
2023-03-26T00:54:08.794Z,9.70
2023-03-26T00:56:40.134Z,9.60
2023-03-26T00:59:09.384Z,9.60
2023-03-26T01:01:42.426Z,9.70
2023-03-26T01:04:27.378Z,9.60
2023-03-26T01:06:55.529Z,9.70
2023-03-26T01:09:25.134Z,9.70
2023-03-26T01:11:54.177Z,9.60
2023-03-26T01:14:25.587Z,9.50
2023-03-26T01:16:59.128Z,9.50
2023-03-26T01:19:33.938Z,9.70
2023-03-26T01:22:00.730Z,9.80
2023-03-26T01:24:30.185Z,9.80
2023-03-26T01:27:01.507Z,9.70
2023-03-26T01:29:40.434Z,9.70
2023-03-26T01:32:26.066Z,9.90
2023-03-26T01:35:14.350Z,10.10
2023-03-26T01:37:52.554Z,10.00
2023-03-26T01:40:42.891Z,10.10
2023-03-26T01:43:16.733Z,10.20
2023-03-26T01:45:45.597Z,10.10
2023-03-26T01:48:12.671Z,10.00
2023-03-26T01:50:39.347Z,10.00
2023-03-26T01:53:06.092Z,10.00
2023-03-26T01:55:38.182Z,10.20
2023-03-26T01:58:15.828Z,10.20
2023-03-26T02:01:03.746Z,10.20
2023-03-26T02:03:32.068Z,10.40
2023-03-26T02:05:58.788Z,10.50
2023-03-26T02:08:52.202Z,10.30
2023-03-26T02:11:20.027Z,10.20
2023-03-26T02:13:47.023Z,10.30
2023-03-26T02:16:14.559Z,10.30
2023-03-26T02:18:41.373Z,10.20
2023-03-26T02:21:10.020Z,10.20
2023-03-26T02:23:36.836Z,10.10
2023-03-26T02:26:05.933Z,10.00
2023-03-26T02:28:32.529Z,10.00
2023-03-26T02:31:01.627Z,10.10
2023-03-26T02:33:28.741Z,10.30
2023-03-26T02:35:59.460Z,10.30
2023-03-26T02:38:26.723Z,10.20
2023-03-26T02:40:54.493Z,10.10
2023-03-26T02:43:21.801Z,10.10
2023-03-26T02:45:48.696Z,10.10
2023-03-26T02:48:15.469Z,9.90
2023-03-26T02:50:42.547Z,9.90
2023-03-26T02:53:09.465Z,9.80
2023-03-26T02:55:36.145Z,9.70
2023-03-26T02:58:02.833Z,9.60
2023-03-26T03:00:29.583Z,9.60
2023-03-26T03:02:57.975Z,9.40
2023-03-26T03:05:26.587Z,9.40
2023-03-26T03:07:58.200Z,9.30
2023-03-26T03:10:26.291Z,9.30
2023-03-26T03:12:53.443Z,9.20
2023-03-26T03:15:20.285Z,9.20
2023-03-26T03:17:47.043Z,9.20
2023-03-26T03:20:13.742Z,9.20
2023-03-26T03:22:40.780Z,9.10
2023-03-26T03:25:14.286Z,9.10
2023-03-26T03:27:41.360Z,9.10
2023-03-26T03:30:08.951Z,9.10
2023-03-26T03:32:35.681Z,9.10
2023-03-26T03:35:02.367Z,9.10
2023-03-26T03:37:28.966Z,9.10
2023-03-26T03:39:55.547Z,9.00
2023-03-26T03:42:22.483Z,9.00
2023-03-26T03:44:49.156Z,9.00
2023-03-26T03:47:15.908Z,9.00
2023-03-26T03:49:42.596Z,9.00
2023-03-26T03:52:09.262Z,9.00
2023-03-26T03:54:36.004Z,9.00
2023-03-26T03:57:03.420Z,9.00
2023-03-26T03:59:30.116Z,9.00
2023-03-26T04:01:56.821Z,8.90
2023-03-26T04:04:24.672Z,8.90
2023-03-26T04:06:52.065Z,8.90
2023-03-26T04:09:18.881Z,8.90
2023-03-26T04:11:45.621Z,8.90
2023-03-26T04:14:12.263Z,8.90
2023-03-26T04:16:38.897Z,8.90
2023-03-26T04:19:05.559Z,8.80
2023-03-26T04:21:32.320Z,8.90
2023-03-26T04:24:01.718Z,8.80
2023-03-26T04:26:30.942Z,8.80
2023-03-26T04:29:02.669Z,8.80
2023-03-26T04:31:30.416Z,8.70
2023-03-26T04:34:05.534Z,8.70
2023-03-26T04:36:34.265Z,8.70
2023-03-26T04:39:03.487Z,8.70
2023-03-26T04:41:30.212Z,8.70
2023-03-26T04:43:56.843Z,8.60
2023-03-26T04:46:23.724Z,8.70
2023-03-26T04:48:54.473Z,8.70
2023-03-26T04:51:24.333Z,8.60
2023-03-26T04:53:52.589Z,8.70
2023-03-26T04:56:38.182Z,8.70
2023-03-26T04:59:04.988Z,8.70
2023-03-26T05:01:33.122Z,8.70
2023-03-26T05:03:59.861Z,8.60
2023-03-26T05:06:27.957Z,8.70
2023-03-26T05:08:54.788Z,8.70
2023-03-26T05:11:21.484Z,8.70
2023-03-26T05:13:48.206Z,8.70
2023-03-26T05:16:14.898Z,8.70
2023-03-26T05:18:41.570Z,8.70
2023-03-26T05:21:08.303Z,8.80
2023-03-26T05:23:34.939Z,8.80
2023-03-26T05:26:01.748Z,8.80
2023-03-26T05:28:28.498Z,8.80
2023-03-26T05:30:55.513Z,8.80
2023-03-26T05:33:22.458Z,8.80
2023-03-26T05:35:59.100Z,8.80
2023-03-26T05:38:25.821Z,8.80
2023-03-26T05:40:56.965Z,8.80
2023-03-26T05:43:23.611Z,8.80
2023-03-26T05:45:50.316Z,8.80
2023-03-26T05:48:17.005Z,8.80
2023-03-26T05:50:43.681Z,8.90
2023-03-26T05:53:10.298Z,8.90
2023-03-26T05:55:36.934Z,8.90
2023-03-26T05:58:03.545Z,8.90
2023-03-26T06:00:30.455Z,8.90
2023-03-26T06:02:57.296Z,8.90
2023-03-26T06:05:24.455Z,8.90
2023-03-26T06:07:51.083Z,8.90
2023-03-26T06:10:18.952Z,8.90
2023-03-26T06:12:46.079Z,8.90
2023-03-26T06:15:12.692Z,8.80
2023-03-26T06:17:39.326Z,8.80
2023-03-26T06:20:09.291Z,8.80
2023-03-26T06:22:36.188Z,8.80
2023-03-26T06:25:03.044Z,8.80
2023-03-26T06:27:29.714Z,8.80
2023-03-26T06:29:56.377Z,8.80
2023-03-26T06:32:23.203Z,8.80
2023-03-26T06:34:49.858Z,8.80
2023-03-26T06:37:16.561Z,8.80
2023-03-26T06:39:43.131Z,8.80
2023-03-26T06:42:09.807Z,8.80
2023-03-26T06:44:36.466Z,8.90
2023-03-26T06:47:03.200Z,9.10
2023-03-26T06:49:29.899Z,9.20
2023-03-26T06:51:57.460Z,9.20
2023-03-26T06:54:24.034Z,9.30
2023-03-26T06:56:50.709Z,9.40
2023-03-26T06:59:18.498Z,9.50
2023-03-26T07:01:46.786Z,9.60
2023-03-26T07:04:13.687Z,9.60
2023-03-26T07:06:40.393Z,9.60
2023-03-26T07:09:07.045Z,9.70
2023-03-26T07:11:33.800Z,9.70
2023-03-26T07:14:00.753Z,9.70
2023-03-26T07:16:27.495Z,9.70
2023-03-26T07:18:55.308Z,9.70
2023-03-26T07:21:22.696Z,9.80
2023-03-26T07:23:49.596Z,9.70
2023-03-26T07:26:28.779Z,9.70
2023-03-26T07:29:27.893Z,9.70
2023-03-26T07:31:54.501Z,9.80
2023-03-26T07:34:24.290Z,9.70
2023-03-26T07:36:57.738Z,9.80
2023-03-26T07:39:42.691Z,9.80
2023-03-26T07:42:41.867Z,9.90
2023-03-26T07:45:14.265Z,10.00
2023-03-26T07:47:41.927Z,10.10
2023-03-26T07:50:15.236Z,10.20
2023-03-26T07:52:43.322Z,10.30
2023-03-26T07:55:14.066Z,10.40
2023-03-26T07:57:47.507Z,10.40
2023-03-26T08:00:20.283Z,10.50
2023-03-26T08:03:12.150Z,10.60
2023-03-26T08:05:41.882Z,10.80
2023-03-26T08:08:27.296Z,10.80
2023-03-26T08:11:12.788Z,10.90
2023-03-26T08:13:39.337Z,11.00
2023-03-26T08:16:06.642Z,11.10
2023-03-26T08:18:50.726Z,11.10
2023-03-26T08:21:25.160Z,11.20
2023-03-26T08:24:04.775Z,11.30
2023-03-26T08:26:38.644Z,11.40
2023-03-26T08:29:05.368Z,11.40
2023-03-26T08:31:34.767Z,11.40
2023-03-26T08:34:02.053Z,11.40
2023-03-26T08:36:29.648Z,11.30
2023-03-26T08:38:57.489Z,11.30
2023-03-26T08:41:42.165Z,11.30
2023-03-26T08:44:21.941Z,11.30
2023-03-26T08:47:10.345Z,11.30
2023-03-26T08:49:56.434Z,11.40
2023-03-26T08:52:41.721Z,11.50
2023-03-26T08:55:11.725Z,11.60
2023-03-26T08:57:56.414Z,11.60
2023-03-26T09:00:32.678Z,11.50
2023-03-26T09:03:00.404Z,11.50
2023-03-26T09:05:33.735Z,11.40
2023-03-26T09:08:20.675Z,11.50
2023-03-26T09:10:50.386Z,11.60
2023-03-26T09:13:28.412Z,11.70
2023-03-26T09:16:07.682Z,11.80
2023-03-26T09:18:34.319Z,12.00
2023-03-26T09:21:07.006Z,12.20
2023-03-26T09:23:57.247Z,12.30
2023-03-26T09:26:25.710Z,12.40
2023-03-26T09:29:22.468Z,12.60
2023-03-26T09:32:02.399Z,12.70
2023-03-26T09:34:34.646Z,12.80
2023-03-26T09:37:17.577Z,13.00
2023-03-26T09:40:05.017Z,13.10
2023-03-26T09:42:31.774Z,13.10
2023-03-26T09:45:08.933Z,13.10
2023-03-26T09:47:38.721Z,13.10
2023-03-26T09:50:24.206Z,13.30
2023-03-26T09:52:51.057Z,13.40
2023-03-26T09:55:21.606Z,13.50
2023-03-26T09:57:51.247Z,13.60
2023-03-26T10:00:29.746Z,13.50
2023-03-26T10:02:56.391Z,13.60
2023-03-26T10:05:29.649Z,13.60
2023-03-26T10:08:15.230Z,13.60
2023-03-26T10:11:05.028Z,13.60
2023-03-26T10:13:37.862Z,13.90
2023-03-26T10:16:23.042Z,14.10
2023-03-26T10:18:56.763Z,14.30
2023-03-26T10:21:38.669Z,14.30
2023-03-26T10:24:11.125Z,14.30
2023-03-26T10:27:08.905Z,14.20
2023-03-26T10:29:37.123Z,14.20
2023-03-26T10:32:03.833Z,14.00
2023-03-26T10:34:44.900Z,13.80
2023-03-26T10:37:20.714Z,13.60
2023-03-26T10:39:50.408Z,13.50
2023-03-26T10:42:40.810Z,13.40
2023-03-26T10:45:18.971Z,13.30
2023-03-26T10:47:45.895Z,13.10
2023-03-26T10:50:31.259Z,12.70
2023-03-26T10:53:11.857Z,12.40
2023-03-26T10:55:40.189Z,12.30
2023-03-26T10:58:15.762Z,12.30
2023-03-26T11:01:04.739Z,12.20
2023-03-26T11:03:52.105Z,12.10
2023-03-26T11:06:28.045Z,12.10
2023-03-26T11:09:03.420Z,12.00
2023-03-26T11:11:49.942Z,11.90
2023-03-26T11:14:31.761Z,11.90
2023-03-26T11:17:40.901Z,12.00
2023-03-26T11:20:03.335Z,12.00
2023-03-26T11:22:42.115Z,12.10
2023-03-26T11:25:23.936Z,12.10
2023-03-26T11:27:57.021Z,12.10
2023-03-26T11:30:27.608Z,12.20
2023-03-26T11:32:58.410Z,12.20
2023-03-26T11:35:39.636Z,12.20
2023-03-26T11:38:41.869Z,12.20
2023-03-26T11:41:13.128Z,12.20
2023-03-26T11:43:39.786Z,12.20
2023-03-26T11:46:10.251Z,12.20
2023-03-26T11:48:45.658Z,12.30
2023-03-26T11:51:18.264Z,12.20
2023-03-26T11:53:47.079Z,12.20
2023-03-26T11:56:24.304Z,12.10
2023-03-26T11:59:01.324Z,12.20
2023-03-26T12:01:32.604Z,12.30
2023-03-26T12:04:25.706Z,12.50
2023-03-26T12:06:52.420Z,12.70
2023-03-26T12:09:19.639Z,12.90
2023-03-26T12:11:47.496Z,13.00
2023-03-26T12:14:18.821Z,13.10
2023-03-26T12:17:05.938Z,13.00
2023-03-26T12:19:40.875Z,13.00
2023-03-26T12:22:29.475Z,13.10
2023-03-26T12:25:03.746Z,12.90
2023-03-26T12:27:30.837Z,12.80
2023-03-26T12:30:11.527Z,13.10
2023-03-26T12:32:46.166Z,13.40
2023-03-26T12:35:18.753Z,13.60
2023-03-26T12:37:46.193Z,13.80
2023-03-26T12:40:22.339Z,14.00
2023-03-26T12:44:47.906Z,14.20
2023-03-26T12:45:42.049Z,14.20
2023-03-26T12:48:18.020Z,14.10
2023-03-26T12:50:50.181Z,14.10
2023-03-26T12:53:26.604Z,14.10
2023-03-26T12:56:06.612Z,14.00
2023-03-26T12:59:01.281Z,13.80
2023-03-26T13:01:35.591Z,13.70
2023-03-26T13:04:19.044Z,13.60
2023-03-26T13:07:02.188Z,13.60
2023-03-26T13:09:38.157Z,13.60
2023-03-26T13:12:14.422Z,13.50
2023-03-26T13:14:41.048Z,13.60
2023-03-26T13:17:11.465Z,13.60
2023-03-26T13:19:54.978Z,13.60
2023-03-26T13:22:23.111Z,13.50
2023-03-26T13:24:55.930Z,13.20
2023-03-26T13:27:30.938Z,13.00
2023-03-26T13:29:57.722Z,13.10
2023-03-26T13:32:30.854Z,13.10
2023-03-26T13:35:13.517Z,13.10
2023-03-26T13:38:00.433Z,13.10
2023-03-26T13:40:33.312Z,12.90
2023-03-26T13:42:59.969Z,12.90
2023-03-26T13:45:46.506Z,12.80
2023-03-26T13:48:16.936Z,12.70
2023-03-26T13:50:45.977Z,12.70
2023-03-26T13:53:16.088Z,12.70
2023-03-26T13:55:42.699Z,12.50
2023-03-26T13:58:17.023Z,12.40
2023-03-26T14:00:54.239Z,12.30
2023-03-26T14:03:24.760Z,12.40
2023-03-26T14:05:55.427Z,12.30
2023-03-26T14:08:28.086Z,12.20
2023-03-26T14:11:14.970Z,12.20
2023-03-26T14:16:52.533Z,12.30
2023-03-26T14:19:54.572Z,12.40
2023-03-26T14:22:21.203Z,12.40
2023-03-26T14:24:51.438Z,12.30
2023-03-26T14:27:21.852Z,12.20
2023-03-26T14:29:57.106Z,12.30
2023-03-26T14:32:29.709Z,12.00
2023-03-26T14:35:20.316Z,12.10
2023-03-26T14:38:19.520Z,11.60
2023-03-26T14:40:54.937Z,11.20
2023-03-26T14:43:41.903Z,11.20
2023-03-26T14:46:27.409Z,11.40
2023-03-26T14:48:57.232Z,11.40
2023-03-26T14:51:23.877Z,11.40
2023-03-26T14:53:52.375Z,11.40
2023-03-26T14:56:38.089Z,11.30
2023-03-26T14:59:07.885Z,11.40
2023-03-26T15:01:37.548Z,11.30
2023-03-26T15:04:37.043Z,11.30
2023-03-26T15:07:22.480Z,11.40
2023-03-26T15:10:10.577Z,11.40
2023-03-26T15:12:44.390Z,11.30
2023-03-26T15:15:29.824Z,11.30
2023-03-26T15:18:15.427Z,11.30
2023-03-26T15:21:01.829Z,11.20
2023-03-26T15:23:51.877Z,11.20
2023-03-26T15:26:25.599Z,11.10
2023-03-26T15:29:11.256Z,11.10
2023-03-26T15:31:47.436Z,11.20
2023-03-26T15:34:21.301Z,11.20
2023-03-26T15:37:06.354Z,11.10
2023-03-26T15:39:38.030Z,11.10
2023-03-26T15:42:10.926Z,11.10
2023-03-26T15:44:50.923Z,11.10
2023-03-26T15:47:40.813Z,11.10
2023-03-26T15:50:10.218Z,11.00
2023-03-26T15:52:48.908Z,11.10
2023-03-26T15:55:16.806Z,11.00
2023-03-26T15:57:48.694Z,11.00
2023-03-26T16:00:29.075Z,11.00
2023-03-26T16:03:09.538Z,11.00
2023-03-26T16:05:56.272Z,10.90
2023-03-26T16:08:47.215Z,10.90
2023-03-26T16:11:14.438Z,10.90
2023-03-26T16:13:55.614Z,10.80
2023-03-26T16:16:23.532Z,10.80
2023-03-26T16:19:16.959Z,10.80
2023-03-26T16:21:46.394Z,10.70
2023-03-26T16:24:20.206Z,10.60
2023-03-26T16:26:49.858Z,10.60
2023-03-26T16:29:24.630Z,10.60
2023-03-26T16:31:57.482Z,10.60
2023-03-26T16:34:29.427Z,10.50
2023-03-26T16:36:58.472Z,10.50
2023-03-26T16:39:37.947Z,10.40
2023-03-26T16:42:21.993Z,10.40
2023-03-26T16:44:48.615Z,10.40
2023-03-26T16:47:24.477Z,10.30
2023-03-26T16:50:08.984Z,10.30
2023-03-26T16:52:42.897Z,10.20
2023-03-26T16:55:16.270Z,10.20
2023-03-26T16:57:58.340Z,10.20
2023-03-26T17:00:44.045Z,10.10
2023-03-26T17:03:16.950Z,10.10
2023-03-26T17:06:02.063Z,10.10
2023-03-26T17:08:37.175Z,10.00
2023-03-26T17:11:27.205Z,10.00
2023-03-26T17:14:12.657Z,9.90
2023-03-26T17:16:46.774Z,9.90
2023-03-26T17:19:16.492Z,9.90
2023-03-26T17:21:46.916Z,9.80
2023-03-26T17:24:23.782Z,9.80
2023-03-26T17:26:55.282Z,9.80
2023-03-26T17:29:30.122Z,9.80
2023-03-26T17:32:02.208Z,9.80
2023-03-26T17:34:49.161Z,9.80
2023-03-26T17:37:22.016Z,9.70
2023-03-26T17:39:58.004Z,9.80
2023-03-26T17:42:24.700Z,9.70
2023-03-26T17:45:09.684Z,9.70
2023-03-26T17:47:38.180Z,9.60
2023-03-26T17:50:19.887Z,9.50
2023-03-26T17:53:06.298Z,9.50
2023-03-26T17:55:35.733Z,9.50
2023-03-26T17:58:22.293Z,9.40
2023-03-26T18:00:55.054Z,9.40
2023-03-26T18:03:34.417Z,9.40
2023-03-26T18:06:09.201Z,9.40
2023-03-26T18:08:54.637Z,9.40
2023-03-26T18:11:22.407Z,9.30
2023-03-26T18:14:10.116Z,9.30
2023-03-26T18:16:49.591Z,9.30
2023-03-26T18:19:22.038Z,9.30
2023-03-26T18:21:53.102Z,9.30
2023-03-26T18:24:36.479Z,9.20
2023-03-26T18:27:08.175Z,9.20
2023-03-26T18:29:42.624Z,9.20
2023-03-26T18:32:09.322Z,9.10
2023-03-26T18:34:38.161Z,9.20
2023-03-26T18:37:08.513Z,9.20
2023-03-26T18:39:35.623Z,9.20
2023-03-26T18:42:04.702Z,9.20
2023-03-26T18:44:32.643Z,9.20
2023-03-26T18:46:59.385Z,9.10
2023-03-26T18:49:31.168Z,9.10
2023-03-26T18:51:59.385Z,9.10
2023-03-26T18:54:29.396Z,9.10
2023-03-26T18:57:01.286Z,9.10
2023-03-26T18:59:29.975Z,9.10
2023-03-26T19:01:57.839Z,9.10
2023-03-26T19:04:25.685Z,9.00
2023-03-26T19:06:55.099Z,9.00
2023-03-26T19:09:32.164Z,8.90
2023-03-26T19:12:07.435Z,8.80
2023-03-26T19:14:54.345Z,8.90
2023-03-26T19:17:21.824Z,8.90
2023-03-26T19:19:49.294Z,9.00
2023-03-26T19:22:16.350Z,9.10
2023-03-26T19:24:43.041Z,9.30
2023-03-26T19:27:10.256Z,9.40
2023-03-26T19:29:36.953Z,9.50
2023-03-26T19:32:04.845Z,9.30
2023-03-26T19:34:31.634Z,9.30
2023-03-26T19:37:02.212Z,9.10
2023-03-26T19:39:43.398Z,9.20
2023-03-26T19:42:16.103Z,9.00
2023-03-26T19:44:43.474Z,8.80
2023-03-26T19:47:19.939Z,8.80
2023-03-26T19:49:54.631Z,8.60
2023-03-26T19:52:21.261Z,8.60
2023-03-26T19:55:01.230Z,8.40
2023-03-26T19:57:29.142Z,8.30
2023-03-26T19:59:56.090Z,8.20
2023-03-26T20:02:22.979Z,8.10
2023-03-26T20:04:51.906Z,8.10
2023-03-26T20:07:20.318Z,8.30
2023-03-26T20:09:48.183Z,8.40
2023-03-26T20:12:22.036Z,8.30
2023-03-26T20:14:49.068Z,8.30
2023-03-26T20:17:17.246Z,8.30
2023-03-26T20:19:44.749Z,8.50
2023-03-26T20:22:12.386Z,8.30
2023-03-26T20:24:39.001Z,8.20
2023-03-26T20:27:05.657Z,8.20
2023-03-26T20:29:32.957Z,8.20
2023-03-26T20:31:59.664Z,8.20
2023-03-26T20:34:26.464Z,8.20
2023-03-26T20:37:01.343Z,8.20
2023-03-26T20:39:28.350Z,8.20
2023-03-26T20:41:56.197Z,8.20
2023-03-26T20:44:29.163Z,8.20
2023-03-26T20:47:01.143Z,8.30
2023-03-26T20:49:29.525Z,8.30
2023-03-26T20:51:56.186Z,8.30
2023-03-26T20:54:24.095Z,8.40
2023-03-26T20:56:52.518Z,8.40
2023-03-26T20:59:21.758Z,8.30
2023-03-26T21:01:49.984Z,8.30
2023-03-26T21:04:19.164Z,8.40
2023-03-26T21:06:57.543Z,8.50
2023-03-26T21:09:35.163Z,8.40
2023-03-26T21:12:05.782Z,8.50
2023-03-26T21:14:32.880Z,8.50
2023-03-26T21:16:59.720Z,8.40
2023-03-26T21:19:26.643Z,8.60
2023-03-26T21:21:57.637Z,8.50
2023-03-26T21:24:42.996Z,8.60
2023-03-26T21:27:18.101Z,8.70
2023-03-26T21:29:47.714Z,8.60
2023-03-26T21:32:14.775Z,8.40
2023-03-26T21:34:55.663Z,8.80
2023-03-26T21:37:25.341Z,8.60
2023-03-26T21:39:52.285Z,8.70
2023-03-26T21:42:19.104Z,8.70
2023-03-26T21:44:49.014Z,8.70
2023-03-26T21:47:15.750Z,8.60
2023-03-26T21:49:45.465Z,8.70
2023-03-26T21:52:15.112Z,8.60
2023-03-26T21:54:44.515Z,8.80
2023-03-26T21:57:29.610Z,8.60
2023-03-26T22:02:55.588Z,8.60
2023-03-26T22:05:45.076Z,8.70
2023-03-26T22:11:34.048Z,8.70
2023-03-26T22:20:55.993Z,8.60
2023-03-26T22:23:38.435Z,8.50
2023-03-26T22:26:14.782Z,8.60
2023-03-26T22:28:41.596Z,8.60
2023-03-26T22:31:34.252Z,8.60
2023-03-26T22:34:07.939Z,8.50
2023-03-26T22:39:31.917Z,8.70
2023-03-26T22:42:07.572Z,8.60
2023-03-26T22:47:39.599Z,8.60
2023-03-26T22:50:07.446Z,8.60
2023-03-26T22:52:35.844Z,8.60
2023-03-26T22:55:03.215Z,8.60
2023-03-26T22:57:29.849Z,8.50
2023-03-26T22:59:56.393Z,8.50
2023-03-26T23:02:23.086Z,8.40
2023-03-26T23:04:50.600Z,8.30
2023-03-26T23:07:17.421Z,8.40
2023-03-26T23:09:45.626Z,8.40
2023-03-26T23:12:12.177Z,8.30
2023-03-26T23:14:38.800Z,8.40
2023-03-26T23:17:05.431Z,8.60
2023-03-26T23:19:34.050Z,8.60
2023-03-26T23:22:00.801Z,8.50
2023-03-26T23:24:27.484Z,8.50
2023-03-26T23:26:58.776Z,8.50
2023-03-26T23:29:25.363Z,8.40
2023-03-26T23:31:53.005Z,8.50
2023-03-26T23:34:21.498Z,8.40
2023-03-26T23:36:49.040Z,8.20
2023-03-26T23:39:15.968Z,8.40
2023-03-26T23:41:45.959Z,8.30
2023-03-26T23:44:14.497Z,8.30
2023-03-26T23:46:44.252Z,8.30
2023-03-26T23:49:12.090Z,8.50
2023-03-26T23:51:38.770Z,8.40
2023-03-26T23:54:05.495Z,8.30
2023-03-26T23:56:32.309Z,8.40
2023-03-26T23:59:00.690Z,8.30
